sensor_id;sensor_type;location;lat;lon;timestamp;temperature;humidity
29207;DHT22;16247;50.840;4.382;2022-08-01T00:02:07;21.60;99.90
29207;DHT22;16247;50.840;4.382;2022-08-01T00:04:33;21.60;99.90
29207;DHT22;16247;50.840;4.382;2022-08-01T00:06:59;21.50;99.90
29207;DHT22;16247;50.840;4.382;2022-08-01T00:09:24;21.40;99.90
29207;DHT22;16247;50.840;4.382;2022-08-01T00:11:50;21.30;99.90
29207;DHT22;16247;50.840;4.382;2022-08-01T00:14:16;21.30;99.90
29207;DHT22;16247;50.840;4.382;2022-08-01T00:16:41;21.30;99.90
29207;DHT22;16247;50.840;4.382;2022-08-01T00:19:07;21.50;99.90
29207;DHT22;16247;50.840;4.382;2022-08-01T00:21:32;21.60;99.90
29207;DHT22;16247;50.840;4.382;2022-08-01T00:23:58;21.60;99.90
29207;DHT22;16247;50.840;4.382;2022-08-01T00:26:24;21.50;99.90
29207;DHT22;16247;50.840;4.382;2022-08-01T00:28:50;21.50;99.90
29207;DHT22;16247;50.840;4.382;2022-08-01T00:31:16;21.50;99.90
29207;DHT22;16247;50.840;4.382;2022-08-01T00:33:41;21.60;99.90
29207;DHT22;16247;50.840;4.382;2022-08-01T00:36:07;21.60;99.90
29207;DHT22;16247;50.840;4.382;2022-08-01T00:38:32;21.50;99.90
29207;DHT22;16247;50.840;4.382;2022-08-01T00:40:58;21.40;99.90
29207;DHT22;16247;50.840;4.382;2022-08-01T00:43:24;21.30;99.90
29207;DHT22;16247;50.840;4.382;2022-08-01T00:45:49;21.30;99.90
29207;DHT22;16247;50.840;4.382;2022-08-01T00:48:16;21.30;99.90
29207;DHT22;16247;50.840;4.382;2022-08-01T00:50:42;21.40;99.90
29207;DHT22;16247;50.840;4.382;2022-08-01T00:53:08;21.40;99.90
29207;DHT22;16247;50.840;4.382;2022-08-01T00:55:34;21.40;99.90
29207;DHT22;16247;50.840;4.382;2022-08-01T00:58:00;21.40;99.90
29207;DHT22;16247;50.840;4.382;2022-08-01T01:00:26;21.50;99.90
29207;DHT22;16247;50.840;4.382;2022-08-01T01:02:52;21.40;99.90
29207;DHT22;16247;50.840;4.382;2022-08-01T01:05:18;21.40;99.90
29207;DHT22;16247;50.840;4.382;2022-08-01T01:08:02;21.30;99.90
29207;DHT22;16247;50.840;4.382;2022-08-01T01:11:09;21.40;99.90
29207;DHT22;16247;50.840;4.382;2022-08-01T01:13:41;21.30;99.90
29207;DHT22;16247;50.840;4.382;2022-08-01T01:16:17;21.20;99.90
29207;DHT22;16247;50.840;4.382;2022-08-01T01:18:53;21.10;99.90
29207;DHT22;16247;50.840;4.382;2022-08-01T01:24:28;21.10;99.90
29207;DHT22;16247;50.840;4.382;2022-08-01T01:29:49;20.90;99.90
29207;DHT22;16247;50.840;4.382;2022-08-01T01:32:23;20.90;99.90
29207;DHT22;16247;50.840;4.382;2022-08-01T01:34:52;21.00;99.90
29207;DHT22;16247;50.840;4.382;2022-08-01T01:37:21;21.10;99.90
29207;DHT22;16247;50.840;4.382;2022-08-01T01:39:53;21.10;99.90
29207;DHT22;16247;50.840;4.382;2022-08-01T01:42:21;21.00;99.90
29207;DHT22;16247;50.840;4.382;2022-08-01T01:44:48;21.00;99.90
29207;DHT22;16247;50.840;4.382;2022-08-01T01:47:16;20.90;99.90
29207;DHT22;16247;50.840;4.382;2022-08-01T01:49:44;20.80;99.90
29207;DHT22;16247;50.840;4.382;2022-08-01T01:52:13;20.80;99.90
29207;DHT22;16247;50.840;4.382;2022-08-01T01:54:46;20.90;99.90
29207;DHT22;16247;50.840;4.382;2022-08-01T01:57:15;20.90;99.90
29207;DHT22;16247;50.840;4.382;2022-08-01T01:59:41;21.00;99.90
29207;DHT22;16247;50.840;4.382;2022-08-01T02:02:09;21.00;99.90
29207;DHT22;16247;50.840;4.382;2022-08-01T02:04:35;21.00;99.90
29207;DHT22;16247;50.840;4.382;2022-08-01T02:07:03;21.10;99.90
29207;DHT22;16247;50.840;4.382;2022-08-01T02:09:31;21.00;99.90
29207;DHT22;16247;50.840;4.382;2022-08-01T02:11:59;21.00;99.90
29207;DHT22;16247;50.840;4.382;2022-08-01T02:14:25;21.00;99.90
29207;DHT22;16247;50.840;4.382;2022-08-01T02:16:55;21.00;99.90
29207;DHT22;16247;50.840;4.382;2022-08-01T02:19:22;20.80;99.90
29207;DHT22;16247;50.840;4.382;2022-08-01T02:22:11;20.80;99.90
29207;DHT22;16247;50.840;4.382;2022-08-01T02:24:57;20.90;99.90
29207;DHT22;16247;50.840;4.382;2022-08-01T02:27:25;20.90;99.90
29207;DHT22;16247;50.840;4.382;2022-08-01T02:29:53;20.90;99.90
29207;DHT22;16247;50.840;4.382;2022-08-01T02:32:30;20.90;99.90
29207;DHT22;16247;50.840;4.382;2022-08-01T02:34:57;20.70;99.90
29207;DHT22;16247;50.840;4.382;2022-08-01T02:37:29;20.70;99.90
29207;DHT22;16247;50.840;4.382;2022-08-01T02:39:56;20.60;99.90
29207;DHT22;16247;50.840;4.382;2022-08-01T02:42:25;20.60;99.90
29207;DHT22;16247;50.840;4.382;2022-08-01T02:44:52;20.60;99.90
29207;DHT22;16247;50.840;4.382;2022-08-01T02:47:20;20.70;99.90
29207;DHT22;16247;50.840;4.382;2022-08-01T02:49:48;20.80;99.90
29207;DHT22;16247;50.840;4.382;2022-08-01T02:52:18;20.90;99.90
29207;DHT22;16247;50.840;4.382;2022-08-01T02:54:47;20.80;99.90
29207;DHT22;16247;50.840;4.382;2022-08-01T02:57:13;20.80;99.90
29207;DHT22;16247;50.840;4.382;2022-08-01T02:59:42;20.80;99.90
29207;DHT22;16247;50.840;4.382;2022-08-01T03:02:08;20.80;99.90
29207;DHT22;16247;50.840;4.382;2022-08-01T03:04:36;20.80;99.90
29207;DHT22;16247;50.840;4.382;2022-08-01T03:07:03;20.90;99.90
29207;DHT22;16247;50.840;4.382;2022-08-01T03:09:30;20.90;99.90
29207;DHT22;16247;50.840;4.382;2022-08-01T03:11:59;20.80;99.90
29207;DHT22;16247;50.840;4.382;2022-08-01T03:14:27;20.70;99.90
29207;DHT22;16247;50.840;4.382;2022-08-01T03:16:56;20.70;99.90
29207;DHT22;16247;50.840;4.382;2022-08-01T03:19:24;21.00;99.90
29207;DHT22;16247;50.840;4.382;2022-08-01T03:21:51;21.00;99.90
29207;DHT22;16247;50.840;4.382;2022-08-01T03:24:19;20.90;99.90
29207;DHT22;16247;50.840;4.382;2022-08-01T03:26:47;20.80;99.90
29207;DHT22;16247;50.840;4.382;2022-08-01T03:29:20;20.80;99.90
29207;DHT22;16247;50.840;4.382;2022-08-01T03:31:48;20.70;99.90
29207;DHT22;16247;50.840;4.382;2022-08-01T03:34:14;20.80;99.90
29207;DHT22;16247;50.840;4.382;2022-08-01T03:36:55;20.80;99.90
29207;DHT22;16247;50.840;4.382;2022-08-01T03:39:27;20.80;99.90
29207;DHT22;16247;50.840;4.382;2022-08-01T03:42:01;20.70;99.90
29207;DHT22;16247;50.840;4.382;2022-08-01T03:44:31;20.70;99.90
29207;DHT22;16247;50.840;4.382;2022-08-01T03:47:04;20.60;99.90
29207;DHT22;16247;50.840;4.382;2022-08-01T03:49:34;20.50;99.90
29207;DHT22;16247;50.840;4.382;2022-08-01T03:52:02;20.60;99.90
29207;DHT22;16247;50.840;4.382;2022-08-01T03:54:32;20.50;99.90
29207;DHT22;16247;50.840;4.382;2022-08-01T03:57:00;20.60;99.90
29207;DHT22;16247;50.840;4.382;2022-08-01T03:59:28;20.60;99.90
29207;DHT22;16247;50.840;4.382;2022-08-01T04:01:55;20.60;99.90
29207;DHT22;16247;50.840;4.382;2022-08-01T04:04:21;20.60;99.90
29207;DHT22;16247;50.840;4.382;2022-08-01T04:06:48;20.60;99.90
29207;DHT22;16247;50.840;4.382;2022-08-01T04:09:20;20.60;99.90
29207;DHT22;16247;50.840;4.382;2022-08-01T04:11:47;20.70;99.90
29207;DHT22;16247;50.840;4.382;2022-08-01T04:14:14;20.70;99.90
29207;DHT22;16247;50.840;4.382;2022-08-01T04:16:40;20.60;99.90
29207;DHT22;16247;50.840;4.382;2022-08-01T04:19:08;20.50;99.90
29207;DHT22;16247;50.840;4.382;2022-08-01T04:21:34;20.40;99.90
29207;DHT22;16247;50.840;4.382;2022-08-01T04:24:11;20.30;99.90
29207;DHT22;16247;50.840;4.382;2022-08-01T04:26:41;20.30;99.90
29207;DHT22;16247;50.840;4.382;2022-08-01T04:29:10;20.30;99.90
29207;DHT22;16247;50.840;4.382;2022-08-01T04:31:39;20.40;99.90
29207;DHT22;16247;50.840;4.382;2022-08-01T04:34:06;20.30;99.90
29207;DHT22;16247;50.840;4.382;2022-08-01T04:36:35;20.30;99.90
29207;DHT22;16247;50.840;4.382;2022-08-01T04:39:03;20.30;99.90
29207;DHT22;16247;50.840;4.382;2022-08-01T04:41:30;20.40;99.90
29207;DHT22;16247;50.840;4.382;2022-08-01T04:43:57;20.40;99.90
29207;DHT22;16247;50.840;4.382;2022-08-01T04:46:24;20.40;99.90
29207;DHT22;16247;50.840;4.382;2022-08-01T04:48:53;20.40;99.90
29207;DHT22;16247;50.840;4.382;2022-08-01T04:51:20;20.40;99.90
29207;DHT22;16247;50.840;4.382;2022-08-01T04:53:49;20.40;99.90
29207;DHT22;16247;50.840;4.382;2022-08-01T04:56:18;20.50;99.90
29207;DHT22;16247;50.840;4.382;2022-08-01T04:58:46;20.40;99.90
29207;DHT22;16247;50.840;4.382;2022-08-01T05:01:12;20.30;99.90
29207;DHT22;16247;50.840;4.382;2022-08-01T05:03:37;20.20;99.90
29207;DHT22;16247;50.840;4.382;2022-08-01T05:06:03;20.30;99.90
29207;DHT22;16247;50.840;4.382;2022-08-01T05:08:29;20.40;99.90
29207;DHT22;16247;50.840;4.382;2022-08-01T05:10:55;20.40;99.90
29207;DHT22;16247;50.840;4.382;2022-08-01T05:13:21;20.30;99.90
29207;DHT22;16247;50.840;4.382;2022-08-01T05:15:46;20.40;99.90
29207;DHT22;16247;50.840;4.382;2022-08-01T05:18:13;20.50;99.90
29207;DHT22;16247;50.840;4.382;2022-08-01T05:20:40;20.50;99.90
29207;DHT22;16247;50.840;4.382;2022-08-01T05:23:07;20.40;99.90
29207;DHT22;16247;50.840;4.382;2022-08-01T05:25:33;20.40;99.90
29207;DHT22;16247;50.840;4.382;2022-08-01T05:27:59;20.40;99.90
29207;DHT22;16247;50.840;4.382;2022-08-01T05:41:06;20.40;99.90
29207;DHT22;16247;50.840;4.382;2022-08-01T05:46:07;20.40;99.90
29207;DHT22;16247;50.840;4.382;2022-08-01T05:48:34;20.50;99.90
29207;DHT22;16247;50.840;4.382;2022-08-01T05:51:34;20.40;99.90
29207;DHT22;16247;50.840;4.382;2022-08-01T05:54:15;20.50;99.90
29207;DHT22;16247;50.840;4.382;2022-08-01T05:56:41;20.50;99.90
29207;DHT22;16247;50.840;4.382;2022-08-01T05:59:06;20.50;99.90
29207;DHT22;16247;50.840;4.382;2022-08-01T06:01:34;20.50;99.90
29207;DHT22;16247;50.840;4.382;2022-08-01T06:04:01;20.60;99.90
29207;DHT22;16247;50.840;4.382;2022-08-01T06:06:29;20.60;99.90
29207;DHT22;16247;50.840;4.382;2022-08-01T06:08:59;20.60;99.90
29207;DHT22;16247;50.840;4.382;2022-08-01T06:11:24;20.70;99.90
29207;DHT22;16247;50.840;4.382;2022-08-01T06:14:00;20.70;99.90
29207;DHT22;16247;50.840;4.382;2022-08-01T06:16:26;20.70;99.90
29207;DHT22;16247;50.840;4.382;2022-08-01T06:18:52;20.80;99.90
29207;DHT22;16247;50.840;4.382;2022-08-01T06:21:21;20.90;99.90
29207;DHT22;16247;50.840;4.382;2022-08-01T06:23:49;20.90;99.90
29207;DHT22;16247;50.840;4.382;2022-08-01T06:26:17;20.80;99.90
29207;DHT22;16247;50.840;4.382;2022-08-01T06:28:44;21.00;99.90
29207;DHT22;16247;50.840;4.382;2022-08-01T06:31:10;20.90;99.90
29207;DHT22;16247;50.840;4.382;2022-08-01T06:33:40;20.80;99.90
29207;DHT22;16247;50.840;4.382;2022-08-01T06:36:08;20.90;99.90
29207;DHT22;16247;50.840;4.382;2022-08-01T06:38:34;21.00;99.90
29207;DHT22;16247;50.840;4.382;2022-08-01T06:41:01;21.00;99.90
29207;DHT22;16247;50.840;4.382;2022-08-01T06:43:28;21.00;99.90
29207;DHT22;16247;50.840;4.382;2022-08-01T06:45:54;21.00;99.90
29207;DHT22;16247;50.840;4.382;2022-08-01T06:48:19;21.00;99.90
29207;DHT22;16247;50.840;4.382;2022-08-01T06:50:45;21.10;99.90
29207;DHT22;16247;50.840;4.382;2022-08-01T06:53:12;21.10;99.90
29207;DHT22;16247;50.840;4.382;2022-08-01T06:55:37;21.20;99.90
29207;DHT22;16247;50.840;4.382;2022-08-01T06:58:04;21.30;99.90
29207;DHT22;16247;50.840;4.382;2022-08-01T07:00:30;21.10;99.90
29207;DHT22;16247;50.840;4.382;2022-08-01T07:02:57;21.20;99.90
29207;DHT22;16247;50.840;4.382;2022-08-01T07:05:24;21.30;99.90
29207;DHT22;16247;50.840;4.382;2022-08-01T07:07:50;21.50;99.90
29207;DHT22;16247;50.840;4.382;2022-08-01T07:10:18;21.50;99.90
29207;DHT22;16247;50.840;4.382;2022-08-01T07:12:43;21.50;99.90
29207;DHT22;16247;50.840;4.382;2022-08-01T07:15:10;21.50;99.90
29207;DHT22;16247;50.840;4.382;2022-08-01T07:17:40;21.70;99.90
29207;DHT22;16247;50.840;4.382;2022-08-01T07:20:08;21.60;99.90
29207;DHT22;16247;50.840;4.382;2022-08-01T07:22:36;21.70;99.90
29207;DHT22;16247;50.840;4.382;2022-08-01T07:25:06;21.80;99.90
29207;DHT22;16247;50.840;4.382;2022-08-01T07:27:33;21.90;99.90
29207;DHT22;16247;50.840;4.382;2022-08-01T07:30:00;22.00;99.90
29207;DHT22;16247;50.840;4.382;2022-08-01T07:32:25;22.00;99.90
29207;DHT22;16247;50.840;4.382;2022-08-01T07:34:52;22.00;99.90
29207;DHT22;16247;50.840;4.382;2022-08-01T07:37:18;22.00;99.90
29207;DHT22;16247;50.840;4.382;2022-08-01T07:39:45;22.00;99.90
29207;DHT22;16247;50.840;4.382;2022-08-01T07:42:13;22.10;99.90
29207;DHT22;16247;50.840;4.382;2022-08-01T07:44:39;22.20;99.90
29207;DHT22;16247;50.840;4.382;2022-08-01T07:47:23;22.20;99.90
29207;DHT22;16247;50.840;4.382;2022-08-01T07:49:52;22.10;99.90
29207;DHT22;16247;50.840;4.382;2022-08-01T07:52:19;22.00;99.90
29207;DHT22;16247;50.840;4.382;2022-08-01T07:54:44;22.10;99.90
29207;DHT22;16247;50.840;4.382;2022-08-01T07:57:11;22.10;99.90
29207;DHT22;16247;50.840;4.382;2022-08-01T07:59:38;22.20;99.90
29207;DHT22;16247;50.840;4.382;2022-08-01T08:02:03;22.20;99.90
29207;DHT22;16247;50.840;4.382;2022-08-01T08:04:31;22.30;99.90
29207;DHT22;16247;50.840;4.382;2022-08-01T08:06:57;22.30;99.90
29207;DHT22;16247;50.840;4.382;2022-08-01T08:09:23;22.40;99.90
29207;DHT22;16247;50.840;4.382;2022-08-01T08:11:49;22.40;99.90
29207;DHT22;16247;50.840;4.382;2022-08-01T08:14:17;22.30;99.90
29207;DHT22;16247;50.840;4.382;2022-08-01T08:16:43;22.30;99.90
29207;DHT22;16247;50.840;4.382;2022-08-01T08:19:09;22.60;99.90
29207;DHT22;16247;50.840;4.382;2022-08-01T08:21:35;22.60;99.90
29207;DHT22;16247;50.840;4.382;2022-08-01T08:24:01;22.70;99.90
29207;DHT22;16247;50.840;4.382;2022-08-01T08:26:47;22.70;99.90
29207;DHT22;16247;50.840;4.382;2022-08-01T08:29:14;22.70;99.90
29207;DHT22;16247;50.840;4.382;2022-08-01T08:31:40;22.70;99.90
29207;DHT22;16247;50.840;4.382;2022-08-01T08:34:07;22.70;99.90
29207;DHT22;16247;50.840;4.382;2022-08-01T08:36:33;22.70;99.90
29207;DHT22;16247;50.840;4.382;2022-08-01T08:38:59;22.70;99.90
29207;DHT22;16247;50.840;4.382;2022-08-01T08:41:32;22.80;99.90
29207;DHT22;16247;50.840;4.382;2022-08-01T08:43:58;22.80;99.90
29207;DHT22;16247;50.840;4.382;2022-08-01T08:46:26;22.60;99.90
29207;DHT22;16247;50.840;4.382;2022-08-01T08:48:55;22.60;99.90
29207;DHT22;16247;50.840;4.382;2022-08-01T08:51:26;22.70;99.90
29207;DHT22;16247;50.840;4.382;2022-08-01T08:53:55;22.70;99.90
29207;DHT22;16247;50.840;4.382;2022-08-01T08:56:24;22.90;99.90
29207;DHT22;16247;50.840;4.382;2022-08-01T08:58:50;23.00;99.90
29207;DHT22;16247;50.840;4.382;2022-08-01T09:01:18;23.00;99.90
29207;DHT22;16247;50.840;4.382;2022-08-01T09:03:44;23.00;99.90
29207;DHT22;16247;50.840;4.382;2022-08-01T09:06:11;23.20;99.90
29207;DHT22;16247;50.840;4.382;2022-08-01T09:08:36;23.20;99.90
29207;DHT22;16247;50.840;4.382;2022-08-01T09:11:06;23.10;99.90
29207;DHT22;16247;50.840;4.382;2022-08-01T09:13:32;23.50;99.90
29207;DHT22;16247;50.840;4.382;2022-08-01T09:15:58;23.60;99.90
29207;DHT22;16247;50.840;4.382;2022-08-01T09:18:39;23.70;99.90
29207;DHT22;16247;50.840;4.382;2022-08-01T09:23:37;23.50;99.90
29207;DHT22;16247;50.840;4.382;2022-08-01T09:26:08;23.50;99.90
29207;DHT22;16247;50.840;4.382;2022-08-01T09:28:35;23.40;99.90
29207;DHT22;16247;50.840;4.382;2022-08-01T09:31:14;23.30;99.90
29207;DHT22;16247;50.840;4.382;2022-08-01T09:36:16;23.50;99.90
29207;DHT22;16247;50.840;4.382;2022-08-01T09:38:43;23.60;99.90
29207;DHT22;16247;50.840;4.382;2022-08-01T09:41:09;23.60;99.90
29207;DHT22;16247;50.840;4.382;2022-08-01T09:43:39;23.60;99.90
29207;DHT22;16247;50.840;4.382;2022-08-01T09:46:11;23.70;99.90
29207;DHT22;16247;50.840;4.382;2022-08-01T09:48:37;23.80;99.90
29207;DHT22;16247;50.840;4.382;2022-08-01T09:51:05;23.70;99.90
29207;DHT22;16247;50.840;4.382;2022-08-01T09:53:48;23.60;99.90
29207;DHT22;16247;50.840;4.382;2022-08-01T09:56:15;23.60;99.90
29207;DHT22;16247;50.840;4.382;2022-08-01T09:58:58;23.60;99.90
29207;DHT22;16247;50.840;4.382;2022-08-01T10:01:26;23.60;99.90
29207;DHT22;16247;50.840;4.382;2022-08-01T10:04:05;23.70;99.90
29207;DHT22;16247;50.840;4.382;2022-08-01T10:06:31;23.90;99.90
29207;DHT22;16247;50.840;4.382;2022-08-01T10:08:57;24.10;99.90
29207;DHT22;16247;50.840;4.382;2022-08-01T10:11:23;24.50;99.90
29207;DHT22;16247;50.840;4.382;2022-08-01T10:13:49;24.60;99.90
29207;DHT22;16247;50.840;4.382;2022-08-01T10:16:43;24.70;99.90
29207;DHT22;16247;50.840;4.382;2022-08-01T10:19:09;24.60;99.90
29207;DHT22;16247;50.840;4.382;2022-08-01T10:21:36;24.60;99.90
29207;DHT22;16247;50.840;4.382;2022-08-01T10:24:06;24.80;99.90
29207;DHT22;16247;50.840;4.382;2022-08-01T10:26:34;24.70;99.90
29207;DHT22;16247;50.840;4.382;2022-08-01T10:29:01;24.80;99.90
29207;DHT22;16247;50.840;4.382;2022-08-01T10:31:28;24.80;99.90
29207;DHT22;16247;50.840;4.382;2022-08-01T10:33:59;24.80;99.90
29207;DHT22;16247;50.840;4.382;2022-08-01T10:36:28;24.70;99.90
29207;DHT22;16247;50.840;4.382;2022-08-01T10:39:01;24.70;99.90
29207;DHT22;16247;50.840;4.382;2022-08-01T10:41:30;24.80;99.90
29207;DHT22;16247;50.840;4.382;2022-08-01T10:44:01;24.80;99.90
29207;DHT22;16247;50.840;4.382;2022-08-01T10:46:31;24.70;99.90
29207;DHT22;16247;50.840;4.382;2022-08-01T10:49:27;24.60;99.90
29207;DHT22;16247;50.840;4.382;2022-08-01T10:51:56;24.80;99.90
29207;DHT22;16247;50.840;4.382;2022-08-01T10:54:27;25.00;99.90
29207;DHT22;16247;50.840;4.382;2022-08-01T10:56:55;25.00;99.90
29207;DHT22;16247;50.840;4.382;2022-08-01T10:59:28;25.00;99.90
29207;DHT22;16247;50.840;4.382;2022-08-01T11:02:04;25.00;99.90
29207;DHT22;16247;50.840;4.382;2022-08-01T11:04:44;25.20;99.90
29207;DHT22;16247;50.840;4.382;2022-08-01T11:07:20;25.40;99.90
29207;DHT22;16247;50.840;4.382;2022-08-01T11:10:09;25.20;99.90
29207;DHT22;16247;50.840;4.382;2022-08-01T11:16:28;25.10;99.90
29207;DHT22;16247;50.840;4.382;2022-08-01T11:18:54;25.00;99.90
29207;DHT22;16247;50.840;4.382;2022-08-01T11:21:20;24.90;99.90
29207;DHT22;16247;50.840;4.382;2022-08-01T11:23:50;25.00;99.90
29207;DHT22;16247;50.840;4.382;2022-08-01T11:26:20;25.20;99.90
29207;DHT22;16247;50.840;4.382;2022-08-01T11:29:13;25.10;99.90
29207;DHT22;16247;50.840;4.382;2022-08-01T11:31:39;25.30;99.90
29207;DHT22;16247;50.840;4.382;2022-08-01T11:34:06;25.40;99.90
29207;DHT22;16247;50.840;4.382;2022-08-01T11:36:35;25.50;99.90
29207;DHT22;16247;50.840;4.382;2022-08-01T11:41:33;25.40;99.90
29207;DHT22;16247;50.840;4.382;2022-08-01T11:46:50;25.40;99.90
29207;DHT22;16247;50.840;4.382;2022-08-01T11:49:48;25.60;99.90
29207;DHT22;16247;50.840;4.382;2022-08-01T11:52:30;25.50;99.90
29207;DHT22;16247;50.840;4.382;2022-08-01T11:57:30;25.50;99.90
29207;DHT22;16247;50.840;4.382;2022-08-01T12:00:04;25.50;99.90
29207;DHT22;16247;50.840;4.382;2022-08-01T12:02:32;25.60;99.90
29207;DHT22;16247;50.840;4.382;2022-08-01T12:05:06;25.60;99.90
29207;DHT22;16247;50.840;4.382;2022-08-01T12:07:34;25.80;99.90
29207;DHT22;16247;50.840;4.382;2022-08-01T12:10:09;25.60;99.90
29207;DHT22;16247;50.840;4.382;2022-08-01T12:12:37;25.70;99.90
29207;DHT22;16247;50.840;4.382;2022-08-01T12:15:08;25.70;99.90
29207;DHT22;16247;50.840;4.382;2022-08-01T12:20:07;26.00;99.90
29207;DHT22;16247;50.840;4.382;2022-08-01T12:22:33;26.10;99.90
29207;DHT22;16247;50.840;4.382;2022-08-01T12:25:10;26.30;99.90
29207;DHT22;16247;50.840;4.382;2022-08-01T12:27:38;26.40;99.90
29207;DHT22;16247;50.840;4.382;2022-08-01T12:30:10;26.40;99.90
29207;DHT22;16247;50.840;4.382;2022-08-01T12:32:38;26.20;99.90
29207;DHT22;16247;50.840;4.382;2022-08-01T12:37:51;26.30;99.90
29207;DHT22;16247;50.840;4.382;2022-08-01T12:40:32;26.60;99.90
29207;DHT22;16247;50.840;4.382;2022-08-01T12:43:09;26.60;99.90
29207;DHT22;16247;50.840;4.382;2022-08-01T12:45:40;26.50;99.90
29207;DHT22;16247;50.840;4.382;2022-08-01T12:48:10;26.50;99.90
29207;DHT22;16247;50.840;4.382;2022-08-01T12:50:49;26.30;99.90
29207;DHT22;16247;50.840;4.382;2022-08-01T12:53:17;26.30;99.90
29207;DHT22;16247;50.840;4.382;2022-08-01T12:55:49;26.30;99.90
29207;DHT22;16247;50.840;4.382;2022-08-01T12:58:16;26.10;99.90
29207;DHT22;16247;50.840;4.382;2022-08-01T13:00:46;26.00;99.90
29207;DHT22;16247;50.840;4.382;2022-08-01T13:03:20;26.10;99.90
29207;DHT22;16247;50.840;4.382;2022-08-01T13:05:48;26.10;99.90
29207;DHT22;16247;50.840;4.382;2022-08-01T13:08:18;26.00;99.90
29207;DHT22;16247;50.840;4.382;2022-08-01T13:10:44;26.30;99.90
29207;DHT22;16247;50.840;4.382;2022-08-01T13:13:13;26.40;99.90
29207;DHT22;16247;50.840;4.382;2022-08-01T13:15:43;26.30;99.90
29207;DHT22;16247;50.840;4.382;2022-08-01T13:18:26;26.20;99.90
29207;DHT22;16247;50.840;4.382;2022-08-01T13:23:36;26.30;99.90
29207;DHT22;16247;50.840;4.382;2022-08-01T13:26:03;26.30;99.90
29207;DHT22;16247;50.840;4.382;2022-08-01T13:28:30;26.30;99.90
29207;DHT22;16247;50.840;4.382;2022-08-01T13:31:06;26.20;99.90
29207;DHT22;16247;50.840;4.382;2022-08-01T13:33:45;26.10;99.90
29207;DHT22;16247;50.840;4.382;2022-08-01T13:36:12;26.00;99.90
29207;DHT22;16247;50.840;4.382;2022-08-01T13:38:38;26.20;99.90
29207;DHT22;16247;50.840;4.382;2022-08-01T13:41:24;26.30;99.90
29207;DHT22;16247;50.840;4.382;2022-08-01T13:43:50;26.30;99.90
29207;DHT22;16247;50.840;4.382;2022-08-01T13:46:16;26.20;99.90
29207;DHT22;16247;50.840;4.382;2022-08-01T13:48:43;26.00;99.90
29207;DHT22;16247;50.840;4.382;2022-08-01T13:51:09;26.10;99.90
29207;DHT22;16247;50.840;4.382;2022-08-01T13:53:35;26.30;99.90
29207;DHT22;16247;50.840;4.382;2022-08-01T13:56:02;26.40;99.90
29207;DHT22;16247;50.840;4.382;2022-08-01T13:58:28;26.30;99.90
29207;DHT22;16247;50.840;4.382;2022-08-01T14:00:55;26.30;99.90
29207;DHT22;16247;50.840;4.382;2022-08-01T14:03:21;26.50;99.90
29207;DHT22;16247;50.840;4.382;2022-08-01T14:05:47;26.60;99.90
29207;DHT22;16247;50.840;4.382;2022-08-01T14:08:14;26.50;99.90
29207;DHT22;16247;50.840;4.382;2022-08-01T14:10:40;26.60;99.90
29207;DHT22;16247;50.840;4.382;2022-08-01T14:13:06;26.50;99.90
29207;DHT22;16247;50.840;4.382;2022-08-01T14:15:33;26.60;99.90
29207;DHT22;16247;50.840;4.382;2022-08-01T14:18:00;26.60;99.90
29207;DHT22;16247;50.840;4.382;2022-08-01T14:20:26;26.70;99.90
29207;DHT22;16247;50.840;4.382;2022-08-01T14:22:53;26.90;99.90
29207;DHT22;16247;50.840;4.382;2022-08-01T14:25:20;26.80;99.90
29207;DHT22;16247;50.840;4.382;2022-08-01T14:27:45;26.80;99.90
29207;DHT22;16247;50.840;4.382;2022-08-01T14:30:17;26.80;99.90
29207;DHT22;16247;50.840;4.382;2022-08-01T14:32:46;27.00;99.90
29207;DHT22;16247;50.840;4.382;2022-08-01T14:35:12;27.10;99.90
29207;DHT22;16247;50.840;4.382;2022-08-01T14:37:38;26.90;99.90
29207;DHT22;16247;50.840;4.382;2022-08-01T14:40:06;27.00;99.90
29207;DHT22;16247;50.840;4.382;2022-08-01T14:42:37;27.00;99.90
29207;DHT22;16247;50.840;4.382;2022-08-01T14:45:04;27.00;99.90
29207;DHT22;16247;50.840;4.382;2022-08-01T14:47:38;26.90;99.90
29207;DHT22;16247;50.840;4.382;2022-08-01T14:50:05;26.70;99.90
29207;DHT22;16247;50.840;4.382;2022-08-01T14:52:33;26.80;99.90
29207;DHT22;16247;50.840;4.382;2022-08-01T14:54:59;26.80;99.90
29207;DHT22;16247;50.840;4.382;2022-08-01T14:57:25;26.80;99.90
29207;DHT22;16247;50.840;4.382;2022-08-01T14:59:50;26.60;99.90
29207;DHT22;16247;50.840;4.382;2022-08-01T15:02:16;26.60;99.90
29207;DHT22;16247;50.840;4.382;2022-08-01T15:04:47;26.60;99.90
29207;DHT22;16247;50.840;4.382;2022-08-01T15:07:14;26.70;99.90
29207;DHT22;16247;50.840;4.382;2022-08-01T15:09:40;26.90;99.90
29207;DHT22;16247;50.840;4.382;2022-08-01T15:12:07;27.00;99.90
29207;DHT22;16247;50.840;4.382;2022-08-01T15:14:33;26.90;99.90
29207;DHT22;16247;50.840;4.382;2022-08-01T15:17:34;26.90;99.90
29207;DHT22;16247;50.840;4.382;2022-08-01T15:23:22;27.00;99.90
29207;DHT22;16247;50.840;4.382;2022-08-01T15:29:10;27.40;99.90
29207;DHT22;16247;50.840;4.382;2022-08-01T15:31:35;27.50;99.90
29207;DHT22;16247;50.840;4.382;2022-08-01T15:37:18;27.10;99.90
29207;DHT22;16247;50.840;4.382;2022-08-01T15:43:07;26.80;99.90
29207;DHT22;16247;50.840;4.382;2022-08-01T15:45:36;26.80;99.90
29207;DHT22;16247;50.840;4.382;2022-08-01T15:48:05;27.00;99.90
29207;DHT22;16247;50.840;4.382;2022-08-01T15:50:33;27.20;99.90
29207;DHT22;16247;50.840;4.382;2022-08-01T15:52:59;27.50;99.90
29207;DHT22;16247;50.840;4.382;2022-08-01T15:55:29;27.80;99.90
29207;DHT22;16247;50.840;4.382;2022-08-01T15:57:55;27.90;99.90
29207;DHT22;16247;50.840;4.382;2022-08-01T16:00:21;27.60;99.90
29207;DHT22;16247;50.840;4.382;2022-08-01T16:02:47;27.40;99.90
29207;DHT22;16247;50.840;4.382;2022-08-01T16:05:15;27.00;99.90
29207;DHT22;16247;50.840;4.382;2022-08-01T16:07:41;26.80;99.90
29207;DHT22;16247;50.840;4.382;2022-08-01T16:10:07;26.80;99.90
29207;DHT22;16247;50.840;4.382;2022-08-01T16:12:39;26.70;99.90
29207;DHT22;16247;50.840;4.382;2022-08-01T16:15:06;26.70;99.90
29207;DHT22;16247;50.840;4.382;2022-08-01T16:17:32;26.80;99.90
29207;DHT22;16247;50.840;4.382;2022-08-01T16:19:58;26.70;99.90
29207;DHT22;16247;50.840;4.382;2022-08-01T16:22:25;26.70;99.90
29207;DHT22;16247;50.840;4.382;2022-08-01T16:24:50;26.70;99.90
29207;DHT22;16247;50.840;4.382;2022-08-01T16:27:18;26.70;99.90
29207;DHT22;16247;50.840;4.382;2022-08-01T16:29:43;26.60;99.90
29207;DHT22;16247;50.840;4.382;2022-08-01T16:32:09;26.40;99.90
29207;DHT22;16247;50.840;4.382;2022-08-01T16:34:36;26.40;99.90
29207;DHT22;16247;50.840;4.382;2022-08-01T16:37:02;26.40;99.90
29207;DHT22;16247;50.840;4.382;2022-08-01T16:39:28;26.40;99.90